Time;durP1;ratioP1;P1;durP2;ratioP2;P2;SDS_P1;SDS_P2;PMS_P1;PMS_P2;Temp;Humidity;BMP_temperature;BMP_pressure;BME280_temperature;BME280_humidity;BME280_pressure;Samples;Min_cycle;Max_cycle;Signal;HPM_P1;HPM_P2
2019/10/24 00:00:37;;;;;;;114.5;48.6;;;;;;;11.57;100;955.3451;;;;
2019/10/24 00:03:01;;;;;;;107;54.2;;;;;;;11.37;100;955.3395;;;;
2019/10/24 00:05:26;;;;;;;106.4;44;;;;;;;11.54;100;955.38;;;;
2019/10/24 00:07:51;;;;;;;213.4;50.6;;;;;;;11.36;100;955.5276;;;;
2019/10/24 00:10:16;;;;;;;131.4;51.2;;;;;;;11.28;100;955.5834;;;;
2019/10/24 00:12:42;;;;;;;97.3;47.1;;;;;;;11.42;100;955.6628;;;;
2019/10/24 00:15:07;;;;;;;77.2;49.2;;;;;;;11.48;100;955.5826;;;;
2019/10/24 00:17:32;;;;;;;73.7;46.1;;;;;;;11.46;100;955.5067;;;;
2019/10/24 00:19:57;;;;;;;90.4;47.2;;;;;;;11.44;100;955.4722;;;;
2019/10/24 00:22:22;;;;;;;98.2;49.4;;;;;;;11.45;100;955.5276;;;;
2019/10/24 00:24:47;;;;;;;83.4;47.2;;;;;;;11.39;100;955.603;;;;
2019/10/24 00:27:12;;;;;;;64.8;46.4;;;;;;;11.47;100;955.6316;;;;
2019/10/24 00:29:37;;;;;;;92.6;47.5;;;;;;;11.45;100;955.5497;;;;
2019/10/24 00:32:02;;;;;;;66.6;42.3;;;;;;;11.54;100;955.4738;;;;
2019/10/24 00:34:27;;;;;;;116.5;41.9;;;;;;;11.32;100;955.4947;;;;
2019/10/24 00:36:52;;;;;;;67.4;42;;;;;;;11.32;100;955.5021;;;;
2019/10/24 00:39:18;;;;;;;81.1;42.4;;;;;;;11.35;100;955.4436;;;;
2019/10/24 00:41:43;;;;;;;62.2;38.1;;;;;;;11.42;100;955.2598;;;;
2019/10/24 00:44:08;;;;;;;152.5;43.5;;;;;;;11.38;100;955.275;;;;
2019/10/24 00:46:33;;;;;;;74.7;43;;;;;;;11.38;100;955.2033;;;;
2019/10/24 00:48:58;;;;;;;49.5;41.1;;;;;;;11.43;100;955.145;;;;
2019/10/24 00:51:23;;;;;;;62.9;43.4;;;;;;;11.46;100;955.2335;;;;
2019/10/24 00:53:48;;;;;;;48.2;40.4;;;;;;;11.61;100;955.2003;;;;
2019/10/24 00:56:14;;;;;;;59;41;;;;;;;11.64;100;955.1606;;;;
2019/10/24 00:58:39;;;;;;;111.1;42.3;;;;;;;11.41;100;955.1113;;;;
2019/10/24 01:01:04;;;;;;;55.6;40.8;;;;;;;11.41;100;955.0175;;;;
2019/10/24 01:03:29;;;;;;;161.1;41.4;;;;;;;11.43;100;955.0602;;;;
2019/10/24 01:05:54;;;;;;;112.3;42.6;;;;;;;11.25;100;955.0717;;;;
2019/10/24 01:08:19;;;;;;;193.2;44.9;;;;;;;11.11;100;955.0842;;;;
2019/10/24 01:10:44;;;;;;;90.4;40.2;;;;;;;11.28;100;955.0573;;;;
2019/10/24 01:13:09;;;;;;;110.3;41;;;;;;;11.25;100;955.0733;;;;
2019/10/24 01:15:35;;;;;;;58.8;39.2;;;;;;;11.34;100;955.0211;;;;
2019/10/24 01:18:00;;;;;;;81.7;38.4;;;;;;;11.33;100;954.9539;;;;
2019/10/24 01:20:25;;;;;;;103.2;40.8;;;;;;;11.26;100;954.9673;;;;
2019/10/24 01:22:50;;;;;;;86.7;38.5;;;;;;;11.29;100;955.0458;;;;
2019/10/24 01:25:15;;;;;;;76.1;38.3;;;;;;;11.35;100;954.9688;;;;
2019/10/24 01:27:40;;;;;;;160.2;45.4;;;;;;;11.24;100;954.8918;;;;
2019/10/24 01:30:05;;;;;;;136.9;43.9;;;;;;;11.24;100;954.8519;;;;
2019/10/24 01:32:30;;;;;;;50;40.1;;;;;;;11.3;100;954.8452;;;;
2019/10/24 01:34:55;;;;;;;153.6;46.5;;;;;;;11.21;100;954.7286;;;;
2019/10/24 01:37:20;;;;;;;58.6;39.9;;;;;;;11.31;100;954.6725;;;;
2019/10/24 01:39:45;;;;;;;51.3;39.1;;;;;;;11.25;100;954.7275;;;;
2019/10/24 01:42:10;;;;;;;70.2;39.2;;;;;;;11.36;100;954.6939;;;;
2019/10/24 01:44:35;;;;;;;128.2;42.2;;;;;;;11.18;100;954.7022;;;;
2019/10/24 01:47:00;;;;;;;167.7;41.1;;;;;;;11.1;100;954.6708;;;;
2019/10/24 01:49:26;;;;;;;68.2;38.5;;;;;;;11.23;100;954.706;;;;
2019/10/24 01:51:51;;;;;;;131.4;39.8;;;;;;;11.17;100;954.7194;;;;
2019/10/24 01:54:16;;;;;;;64.5;37.2;;;;;;;11.33;100;954.7336;;;;
2019/10/24 01:56:41;;;;;;;62.9;36.2;;;;;;;11.2;100;954.6666;;;;
2019/10/24 01:59:06;;;;;;;47.5;35.1;;;;;;;11.35;100;954.6589;;;;
2019/10/24 02:01:32;;;;;;;50.4;34.1;;;;;;;11.3;100;954.6575;;;;
2019/10/24 02:03:57;;;;;;;53.9;35.1;;;;;;;11.27;100;954.6426;;;;
2019/10/24 02:06:22;;;;;;;52.5;33;;;;;;;11.31;100;954.6554;;;;
2019/10/24 02:08:47;;;;;;;55.6;33.3;;;;;;;11.27;100;954.5986;;;;
2019/10/24 02:11:12;;;;;;;59.2;32.3;;;;;;;11.38;100;954.5873;;;;
2019/10/24 02:13:37;;;;;;;34.2;29.6;;;;;;;11.3;100;954.5751;;;;
2019/10/24 02:16:03;;;;;;;37.2;33.2;;;;;;;11.25;100;954.628;;;;
2019/10/24 02:18:28;;;;;;;48.3;33.7;;;;;;;11.26;100;954.65;;;;
2019/10/24 02:20:53;;;;;;;69.3;34.4;;;;;;;11.16;100;954.6834;;;;
2019/10/24 02:23:18;;;;;;;47.9;31.4;;;;;;;11.24;100;954.6456;;;;
2019/10/24 02:25:43;;;;;;;48.2;28.8;;;;;;;11.25;100;954.5603;;;;
2019/10/24 02:28:08;;;;;;;54.1;31.3;;;;;;;11.09;100;954.5261;;;;
2019/10/24 02:30:33;;;;;;;57.7;31.2;;;;;;;11.07;100;954.531;;;;
2019/10/24 02:32:58;;;;;;;41;29.4;;;;;;;11.25;100;954.5032;;;;
2019/10/24 02:35:24;;;;;;;36;29.3;;;;;;;11.38;100;954.5441;;;;
2019/10/24 02:37:49;;;;;;;46;30.3;;;;;;;11.31;100;954.4727;;;;
2019/10/24 02:40:14;;;;;;;40.8;28.7;;;;;;;11.21;100;954.4423;;;;
2019/10/24 02:42:39;;;;;;;32.9;29.3;;;;;;;11.3;100;954.4169;;;;
2019/10/24 02:45:05;;;;;;;68.3;30.5;;;;;;;11.01;100;954.3617;;;;
2019/10/24 02:47:35;;;;;;;35.5;28.1;;;;;;;11.06;100;954.3293;;;;
2019/10/24 02:49:55;;;;;;;46.8;27.3;;;;;;;11.2;100;954.4219;;;;
2019/10/24 02:52:20;;;;;;;37.3;28.1;;;;;;;11.15;100;954.4067;;;;
2019/10/24 02:55:44;;;;;;;41.2;27.4;;;;;;;11.05;100;954.3881;;;;
2019/10/24 02:58:09;;;;;;;69;26.1;;;;;;;11.05;100;954.3669;;;;
2019/10/24 03:00:35;;;;;;;35.7;23.6;;;;;;;11.2;100;954.3502;;;;
2019/10/24 03:03:00;;;;;;;27;23.1;;;;;;;11.03;100;954.3552;;;;
2019/10/24 03:05:25;;;;;;;39.2;23.8;;;;;;;11;100;954.3304;;;;
2019/10/24 03:07:50;;;;;;;101.8;25.7;;;;;;;10.87;100;954.3547;;;;
2019/10/24 03:10:15;;;;;;;56.4;27.1;;;;;;;10.78;100;954.2985;;;;
2019/10/24 03:12:40;;;;;;;61;27.3;;;;;;;10.71;100;954.3565;;;;
2019/10/24 03:15:05;;;;;;;53.7;28.6;;;;;;;10.61;100;954.5036;;;;
2019/10/24 03:17:30;;;;;;;33;27.5;;;;;;;10.78;100;954.5967;;;;
2019/10/24 03:19:55;;;;;;;37.1;25.9;;;;;;;10.84;100;954.5589;;;;
2019/10/24 03:24:45;;;;;;;29.8;23.8;;;;;;;10.99;100;954.633;;;;
2019/10/24 03:27:11;;;;;;;24.1;21.7;;;;;;;11;100;954.6036;;;;
2019/10/24 03:29:36;;;;;;;25.6;23;;;;;;;10.9;100;954.5775;;;;
2019/10/24 03:32:01;;;;;;;27.5;23;;;;;;;10.87;100;954.5176;;;;
2019/10/24 03:34:27;;;;;;;36.1;24.4;;;;;;;10.84;100;954.4537;;;;
2019/10/24 03:36:52;;;;;;;29;23;;;;;;;10.81;100;954.5326;;;;
2019/10/24 03:39:17;;;;;;;35.5;26.6;;;;;;;10.67;100;954.5865;;;;
2019/10/24 03:41:42;;;;;;;58.8;27.8;;;;;;;10.56;100;954.623;;;;
2019/10/24 03:44:07;;;;;;;30.6;26.7;;;;;;;10.67;100;954.6769;;;;
2019/10/24 03:46:33;;;;;;;30.2;23.8;;;;;;;10.88;100;954.7541;;;;
2019/10/24 03:48:58;;;;;;;25.9;23.2;;;;;;;11;100;954.7878;;;;
2019/10/24 03:51:23;;;;;;;25.6;21;;;;;;;10.92;100;954.8484;;;;
2019/10/24 03:53:49;;;;;;;36.7;21.1;;;;;;;10.78;100;954.9039;;;;
2019/10/24 03:56:14;;;;;;;24.4;21.9;;;;;;;10.84;100;954.8695;;;;
2019/10/24 03:58:39;;;;;;;25.1;21.2;;;;;;;10.81;100;954.8766;;;;
2019/10/24 04:02:28;;;;;;;26.7;24;;;;;;;10.83;100;955.0081;;;;
2019/10/24 04:04:54;;;;;;;37.8;23.5;;;;;;;10.8;100;955.0151;;;;
2019/10/24 04:07:19;;;;;;;28.1;24;;;;;;;10.93;100;954.9617;;;;
2019/10/24 04:09:44;;;;;;;26.6;24;;;;;;;11;100;954.9517;;;;
2019/10/24 04:12:09;;;;;;;29.8;26.3;;;;;;;10.81;100;954.9222;;;;
2019/10/24 04:14:34;;;;;;;27.6;24.9;;;;;;;10.88;100;954.8755;;;;
2019/10/24 04:16:59;;;;;;;31;23.9;;;;;;;10.96;100;954.8161;;;;
2019/10/24 04:19:24;;;;;;;27.1;23.6;;;;;;;10.88;100;954.8176;;;;
2019/10/24 04:21:49;;;;;;;32.1;22.5;;;;;;;10.87;100;954.7166;;;;
2019/10/24 04:24:14;;;;;;;32.2;23.1;;;;;;;10.79;100;954.688;;;;
2019/10/24 04:26:39;;;;;;;35;22.2;;;;;;;10.76;100;954.7928;;;;
2019/10/24 04:29:04;;;;;;;21.9;20;;;;;;;10.86;100;954.9448;;;;
2019/10/24 04:31:29;;;;;;;20.5;18.4;;;;;;;10.9;100;954.9932;;;;
2019/10/24 04:33:54;;;;;;;26.4;19.4;;;;;;;10.76;100;954.902;;;;
2019/10/24 04:36:20;;;;;;;21.8;19.6;;;;;;;10.79;100;955.005;;;;
2019/10/24 04:38:45;;;;;;;24.2;18.8;;;;;;;10.88;100;955.0736;;;;
2019/10/24 04:41:10;;;;;;;20.2;18.2;;;;;;;10.8;100;955.1006;;;;
2019/10/24 04:43:35;;;;;;;25.4;20;;;;;;;10.66;100;955.1487;;;;
2019/10/24 04:46:00;;;;;;;34.6;19.9;;;;;;;10.55;100;955.2206;;;;
2019/10/24 04:48:25;;;;;;;21.6;19.8;;;;;;;10.52;100;955.3132;;;;
2019/10/24 04:50:50;;;;;;;21.3;19.5;;;;;;;10.72;100;955.2415;;;;
2019/10/24 04:53:15;;;;;;;22.7;18.7;;;;;;;10.68;100;955.3315;;;;
2019/10/24 04:55:40;;;;;;;22.6;18.4;;;;;;;10.6;100;955.2841;;;;
2019/10/24 04:58:06;;;;;;;19.2;17.4;;;;;;;10.65;100;955.2424;;;;
2019/10/24 05:00:31;;;;;;;25.3;15.4;;;;;;;10.63;100;955.2372;;;;
2019/10/24 05:02:56;;;;;;;20.7;15.2;;;;;;;10.56;100;955.1746;;;;
2019/10/24 05:05:21;;;;;;;20.4;16.1;;;;;;;10.45;100;955.1797;;;;
2019/10/24 05:07:46;;;;;;;16.7;15.1;;;;;;;10.43;100;955.2355;;;;
2019/10/24 05:10:11;;;;;;;15.8;14.5;;;;;;;10.39;100;955.1814;;;;
2019/10/24 05:12:36;;;;;;;20.5;14.5;;;;;;;10.25;100;955.2679;;;;
2019/10/24 05:15:01;;;;;;;20.5;15.1;;;;;;;10.25;100;955.2957;;;;
2019/10/24 05:17:26;;;;;;;15.8;14.2;;;;;;;10.46;100;955.3417;;;;
2019/10/24 05:19:51;;;;;;;15.2;13.9;;;;;;;10.52;100;955.3075;;;;
2019/10/24 05:22:17;;;;;;;21.3;15.6;;;;;;;10.36;100;955.2397;;;;
2019/10/24 05:24:42;;;;;;;21.7;16.7;;;;;;;10.33;100;955.2458;;;;
2019/10/24 05:27:07;;;;;;;29.3;17.1;;;;;;;10.33;100;955.3256;;;;
2019/10/24 05:29:32;;;;;;;25;15.8;;;;;;;10.27;100;955.438;;;;
2019/10/24 05:31:57;;;;;;;20.6;18.2;;;;;;;10.22;100;955.507;;;;
2019/10/24 05:34:23;;;;;;;20;18;;;;;;;10.28;100;955.5797;;;;
2019/10/24 05:36:48;;;;;;;15.4;14.1;;;;;;;10.6;100;955.6223;;;;
2019/10/24 05:39:13;;;;;;;16.5;15.1;;;;;;;10.53;100;955.5739;;;;
2019/10/24 05:41:38;;;;;;;14.3;13;;;;;;;10.69;100;955.5174;;;;
2019/10/24 05:44:03;;;;;;;13.3;12.1;;;;;;;10.67;100;955.6817;;;;
2019/10/24 05:46:34;;;;;;;15.5;13;;;;;;;10.3;100;955.7218;;;;
2019/10/24 05:48:59;;;;;;;14.7;13.2;;;;;;;10.44;100;955.6323;;;;
2019/10/24 05:51:24;;;;;;;19.9;14;;;;;;;10.22;100;955.6096;;;;
2019/10/24 05:53:49;;;;;;;14.4;13.1;;;;;;;10.34;100;955.5162;;;;
2019/10/24 05:56:14;;;;;;;15.6;14.1;;;;;;;10.39;100;955.4518;;;;
2019/10/24 05:58:39;;;;;;;26.1;15.6;;;;;;;10.25;100;955.3892;;;;
2019/10/24 06:01:05;;;;;;;23.2;16.6;;;;;;;10.35;100;955.3627;;;;
2019/10/24 06:03:30;;;;;;;18.2;15.4;;;;;;;10.35;100;955.387;;;;
2019/10/24 06:05:55;;;;;;;20.6;15.8;;;;;;;10.32;100;955.3989;;;;
2019/10/24 06:08:20;;;;;;;17.4;16;;;;;;;10.45;100;955.5176;;;;
2019/10/24 06:10:45;;;;;;;16.8;15.3;;;;;;;10.49;100;955.5759;;;;
2019/10/24 06:13:10;;;;;;;18.6;17;;;;;;;10.41;100;955.6726;;;;
2019/10/24 06:15:35;;;;;;;19.4;17;;;;;;;10.44;100;955.7792;;;;
2019/10/24 06:18:00;;;;;;;20.4;17.3;;;;;;;10.35;100;955.8713;;;;
2019/10/24 06:20:25;;;;;;;19.1;17.4;;;;;;;10.47;100;955.8529;;;;
2019/10/24 06:22:51;;;;;;;16.9;15.5;;;;;;;10.53;100;955.7303;;;;
2019/10/24 06:25:34;;;;;;;18.2;16.4;;;;;;;10.43;100;955.7976;;;;
2019/10/24 06:27:59;;;;;;;17.4;15.9;;;;;;;10.51;100;955.7963;;;;
2019/10/24 06:30:25;;;;;;;16.7;15.3;;;;;;;10.52;100;955.7531;;;;
2019/10/24 06:32:50;;;;;;;17.5;16;;;;;;;10.62;100;955.6683;;;;
2019/10/24 06:35:15;;;;;;;17.1;15.6;;;;;;;10.69;100;955.7464;;;;
2019/10/24 06:37:40;;;;;;;16.8;15.4;;;;;;;10.74;100;955.7161;;;;
2019/10/24 06:40:05;;;;;;;16.6;15.2;;;;;;;10.79;100;955.7866;;;;
2019/10/24 06:42:30;;;;;;;16.1;14.7;;;;;;;10.8;100;955.8513;;;;
2019/10/24 06:44:55;;;;;;;15;13.8;;;;;;;10.97;100;955.845;;;;
2019/10/24 06:47:20;;;;;;;24;14.8;;;;;;;10.67;100;955.8781;;;;
2019/10/24 06:49:45;;;;;;;17;15.5;;;;;;;10.75;100;955.88;;;;
2019/10/24 06:52:10;;;;;;;15.7;14.4;;;;;;;11.03;100;955.9655;;;;
2019/10/24 06:54:35;;;;;;;15.7;14.3;;;;;;;11.08;100;955.9377;;;;
2019/10/24 06:57:00;;;;;;;16.8;15.3;;;;;;;11.06;100;955.9584;;;;
2019/10/24 06:59:26;;;;;;;15.9;14.5;;;;;;;11.07;100;955.9235;;;;
2019/10/24 07:01:51;;;;;;;14.6;13.2;;;;;;;11.14;100;955.8281;;;;
2019/10/24 07:04:16;;;;;;;14.6;13.2;;;;;;;11.21;100;955.6885;;;;
2019/10/24 07:06:41;;;;;;;14.5;13.2;;;;;;;11.08;100;955.6603;;;;
2019/10/24 07:09:06;;;;;;;15.1;13.7;;;;;;;11.2;100;955.6608;;;;
2019/10/24 07:11:31;;;;;;;14.6;13.2;;;;;;;11.29;100;955.7416;;;;
2019/10/24 07:13:56;;;;;;;14.1;12.8;;;;;;;11.26;100;955.8384;;;;
2019/10/24 07:16:21;;;;;;;14.4;13.2;;;;;;;11.35;100;955.8711;;;;
2019/10/24 07:18:46;;;;;;;15;13.8;;;;;;;11.37;100;955.8997;;;;
2019/10/24 07:21:11;;;;;;;14.5;13.2;;;;;;;11.54;100;955.9308;;;;
2019/10/24 07:23:36;;;;;;;15;13.7;;;;;;;11.55;100;955.8585;;;;
2019/10/24 07:26:02;;;;;;;14.7;13.5;;;;;;;11.67;100;955.8122;;;;
2019/10/24 07:28:27;;;;;;;17.6;16;;;;;;;11.53;100;955.7594;;;;
2019/10/24 07:30:52;;;;;;;15.9;14.5;;;;;;;11.5;100;955.7233;;;;
2019/10/24 07:33:17;;;;;;;16.2;14.8;;;;;;;11.51;100;955.8448;;;;
2019/10/24 07:35:42;;;;;;;17.8;16.1;;;;;;;11.35;100;955.9127;;;;
2019/10/24 07:38:08;;;;;;;18.3;16.5;;;;;;;11.24;100;955.9694;;;;
2019/10/24 07:40:33;;;;;;;17.8;16.2;;;;;;;11.33;100;956.1473;;;;
2019/10/24 07:42:58;;;;;;;17.7;16.1;;;;;;;11.44;100;956.2424;;;;
2019/10/24 07:45:24;;;;;;;19.5;17.5;;;;;;;11.29;100;956.2073;;;;
2019/10/24 07:47:49;;;;;;;19.2;17.4;;;;;;;11.37;100;956.2214;;;;
2019/10/24 07:50:14;;;;;;;18.1;16.3;;;;;;;11.65;100;956.2094;;;;
2019/10/24 07:52:39;;;;;;;18.2;16.5;;;;;;;11.75;100;956.1947;;;;
2019/10/24 07:55:04;;;;;;;17.8;16.1;;;;;;;11.67;100;956.2097;;;;
2019/10/24 07:57:29;;;;;;;17.9;16.3;;;;;;;11.6;100;956.0888;;;;
2019/10/24 07:59:54;;;;;;;19.3;17.5;;;;;;;11.5;100;955.8693;;;;
2019/10/24 08:02:19;;;;;;;18.6;16.9;;;;;;;11.62;100;955.8254;;;;
2019/10/24 08:04:44;;;;;;;20.6;18.5;;;;;;;11.44;100;955.8401;;;;
2019/10/24 08:07:09;;;;;;;19;17.2;;;;;;;11.62;100;955.908;;;;
2019/10/24 08:09:34;;;;;;;17.9;16.2;;;;;;;11.7;100;955.8859;;;;
2019/10/24 08:11:59;;;;;;;17.4;15.8;;;;;;;11.81;100;955.9201;;;;
2019/10/24 08:14:25;;;;;;;17.7;16;;;;;;;11.81;100;955.8066;;;;
2019/10/24 08:16:50;;;;;;;19.2;17.5;;;;;;;11.65;100;955.8184;;;;
2019/10/24 08:19:15;;;;;;;20.1;18.2;;;;;;;11.45;100;955.7561;;;;
2019/10/24 08:21:40;;;;;;;19.2;17.4;;;;;;;11.63;100;955.6492;;;;
2019/10/24 08:24:05;;;;;;;18.8;17.1;;;;;;;11.63;100;955.6075;;;;
2019/10/24 08:26:30;;;;;;;19.9;18.1;;;;;;;11.47;100;955.5695;;;;
2019/10/24 08:28:55;;;;;;;19.9;18;;;;;;;11.54;100;955.5023;;;;
2019/10/24 08:31:20;;;;;;;19.4;17.6;;;;;;;11.64;100;955.6511;;;;
2019/10/24 08:33:45;;;;;;;19.9;18;;;;;;;11.81;100;955.6326;;;;
2019/10/24 08:36:10;;;;;;;21.5;19.4;;;;;;;11.92;100;955.6005;;;;
2019/10/24 08:38:35;;;;;;;20.4;18.4;;;;;;;12;100;955.5636;;;;
2019/10/24 08:41:00;;;;;;;20.9;18.8;;;;;;;12;100;955.4819;;;;
2019/10/24 08:43:26;;;;;;;20.6;18.7;;;;;;;12.12;100;955.4639;;;;
2019/10/24 08:45:51;;;;;;;20.4;18.3;;;;;;;12.24;100;955.4066;;;;
2019/10/24 08:48:16;;;;;;;18.9;17.1;;;;;;;12.19;100;955.3572;;;;
2019/10/24 08:50:41;;;;;;;19;17.1;;;;;;;12.28;100;955.3348;;;;
2019/10/24 08:53:06;;;;;;;19.4;17.6;;;;;;;12.31;100;955.3064;;;;
2019/10/24 08:55:31;;;;;;;20.4;18.2;;;;;;;12.35;100;955.3179;;;;
2019/10/24 08:57:56;;;;;;;19.9;18;;;;;;;12.32;100;955.2533;;;;
2019/10/24 09:00:21;;;;;;;20.7;18.8;;;;;;;12.29;100;955.2534;;;;
2019/10/24 09:02:46;;;;;;;20.6;18.6;;;;;;;12.27;100;955.2083;;;;
2019/10/24 09:05:11;;;;;;;20.2;18.4;;;;;;;12.3;100;955.1774;;;;
2019/10/24 09:07:37;;;;;;;20.5;18.5;;;;;;;12.38;100;955.323;;;;
2019/10/24 09:10:02;;;;;;;22.4;20.1;;;;;;;12.39;100;955.4425;;;;
2019/10/24 09:12:27;;;;;;;21.1;19.1;;;;;;;12.37;100;955.5363;;;;
2019/10/24 09:14:52;;;;;;;20.2;18.4;;;;;;;12.47;100;955.5776;;;;
2019/10/24 09:17:17;;;;;;;20.8;18.7;;;;;;;12.41;100;955.6263;;;;
2019/10/24 09:19:43;;;;;;;20.1;18.2;;;;;;;12.51;99.80469;955.7349;;;;
2019/10/24 09:22:08;;;;;;;19.3;17.5;;;;;;;12.57;100;955.8783;;;;
2019/10/24 09:24:33;;;;;;;19.4;17.6;;;;;;;12.73;99.37988;955.9199;;;;
2019/10/24 09:26:59;;;;;;;20;18.1;;;;;;;12.47;100;955.8881;;;;
2019/10/24 09:29:24;;;;;;;20.1;18;;;;;;;12.44;100;955.959;;;;
2019/10/24 09:31:49;;;;;;;18.6;16.9;;;;;;;12.5;100;956.2054;;;;
2019/10/24 09:34:14;;;;;;;19.5;17.7;;;;;;;12.48;100;956.4033;;;;
2019/10/24 09:36:40;;;;;;;19.7;17.8;;;;;;;12.59;99.19922;956.4227;;;;
2019/10/24 09:39:05;;;;;;;20.3;18.3;;;;;;;12.56;99.83789;956.2753;;;;
2019/10/24 09:41:30;;;;;;;20.6;18.5;;;;;;;12.59;100;956.3359;;;;
2019/10/24 09:43:55;;;;;;;19.6;17.8;;;;;;;12.42;100;956.4528;;;;
2019/10/24 09:46:22;;;;;;;20.1;18.1;;;;;;;12.57;100;956.7194;;;;
2019/10/24 09:48:47;;;;;;;19.7;17.8;;;;;;;12.71;100;956.7078;;;;
2019/10/24 09:51:12;;;;;;;19.5;17.6;;;;;;;12.81;99.05176;956.5467;;;;
2019/10/24 09:53:37;;;;;;;19.9;18.1;;;;;;;12.62;98.70801;956.5653;;;;
2019/10/24 09:56:02;;;;;;;19.1;17.4;;;;;;;12.65;99.54883;956.6619;;;;
2019/10/24 09:58:28;;;;;;;18.6;16.7;;;;;;;12.89;98.14453;956.6544;;;;
2019/10/24 10:00:53;;;;;;;18.9;17.2;;;;;;;12.84;98.6543;956.4495;;;;
2019/10/24 10:03:18;;;;;;;19.3;17.3;;;;;;;12.89;98.01855;956.6127;;;;
2019/10/24 10:05:43;;;;;;;19.8;17.8;;;;;;;12.88;98.57031;956.5772;;;;
2019/10/24 10:08:08;;;;;;;19.9;17.8;;;;;;;12.87;98.85938;956.6124;;;;
2019/10/24 10:10:33;;;;;;;20;18;;;;;;;12.99;98.64258;956.7561;;;;
2019/10/24 10:12:58;;;;;;;20.6;18.7;;;;;;;13.02;97.71191;956.6713;;;;
2019/10/24 10:15:23;;;;;;;19.9;18.1;;;;;;;13.05;97.37988;956.6355;;;;
2019/10/24 10:17:48;;;;;;;19.7;17.8;;;;;;;13.02;97.72266;956.6385;;;;
2019/10/24 10:20:13;;;;;;;19.1;17.2;;;;;;;13.13;97.62012;956.8278;;;;
2019/10/24 10:22:39;;;;;;;18.4;16.8;;;;;;;13.21;95.87988;956.9125;;;;
2019/10/24 10:25:04;;;;;;;18.5;16.8;;;;;;;13.3;95.9668;956.7897;;;;
2019/10/24 10:27:29;;;;;;;18.4;16.5;;;;;;;13.34;95.25879;956.6689;;;;
2019/10/24 10:29:54;;;;;;;18;16.3;;;;;;;13.36;95.45996;956.6066;;;;
2019/10/24 10:32:19;;;;;;;17.7;16;;;;;;;13.24;95.08496;956.5919;;;;
2019/10/24 10:34:44;;;;;;;17.5;15.8;;;;;;;13.27;95.55566;956.6594;;;;
2019/10/24 10:37:09;;;;;;;16.6;15.1;;;;;;;13.44;94.08691;956.6003;;;;
2019/10/24 10:39:35;;;;;;;16.5;15;;;;;;;13.41;95.66797;956.5273;;;;
2019/10/24 10:42:00;;;;;;;17.3;15.7;;;;;;;13.33;96.25098;956.7366;;;;
2019/10/24 10:44:25;;;;;;;17.7;16;;;;;;;13.46;95.0625;956.8582;;;;
2019/10/24 10:46:50;;;;;;;17;15.4;;;;;;;13.59;94.9873;956.8226;;;;
2019/10/24 10:49:16;;;;;;;17;15.3;;;;;;;13.76;92.94922;956.7631;;;;
2019/10/24 10:51:41;;;;;;;17;15.2;;;;;;;13.6;94.59668;956.7734;;;;
2019/10/24 10:54:06;;;;;;;16.2;14.6;;;;;;;13.71;93.29883;956.6911;;;;
2019/10/24 10:56:31;;;;;;;17.1;15.4;;;;;;;13.58;93.51367;956.4852;;;;
2019/10/24 10:58:56;;;;;;;17.1;15.6;;;;;;;13.54;94.12012;956.4646;;;;
2019/10/24 11:01:21;;;;;;;17.9;16.2;;;;;;;13.52;94.32227;956.5685;;;;
2019/10/24 11:03:46;;;;;;;16.3;14.9;;;;;;;13.54;94.60449;956.4753;;;;
2019/10/24 11:06:11;;;;;;;16.8;15.1;;;;;;;13.63;93.75488;956.5795;;;;
2019/10/24 11:08:37;;;;;;;16.6;14.9;;;;;;;13.81;92.79785;956.5364;;;;
2019/10/24 11:11:02;;;;;;;16.5;14.9;;;;;;;13.86;93.03027;956.5243;;;;
2019/10/24 11:13:27;;;;;;;17.2;15.6;;;;;;;13.66;94.08691;956.4722;;;;
2019/10/24 11:15:52;;;;;;;17;15.4;;;;;;;13.69;94.11621;956.4347;;;;
2019/10/24 11:18:18;;;;;;;17.4;15.9;;;;;;;13.59;94.33789;956.4018;;;;
2019/10/24 11:20:43;;;;;;;17.3;15.7;;;;;;;13.64;94.7998;956.4501;;;;
2019/10/24 11:23:08;;;;;;;17.6;15.9;;;;;;;13.74;93.80273;956.4946;;;;
2019/10/24 11:25:34;;;;;;;17.3;15.7;;;;;;;13.69;94.00195;956.4084;;;;
2019/10/24 11:27:59;;;;;;;16.9;15.3;;;;;;;13.8;93.90918;956.407;;;;
2019/10/24 11:30:24;;;;;;;17.7;15.8;;;;;;;13.76;93.48438;956.4775;;;;
2019/10/24 11:32:49;;;;;;;16.6;15.1;;;;;;;13.83;93.34668;956.5316;;;;
2019/10/24 11:35:14;;;;;;;17;15.4;;;;;;;13.84;94.07031;956.38;;;;
2019/10/24 11:37:39;;;;;;;16.1;14.5;;;;;;;13.96;92.39941;956.2572;;;;
2019/10/24 11:40:04;;;;;;;17.5;15.5;;;;;;;13.87;94.14355;956.231;;;;
2019/10/24 11:42:29;;;;;;;19.5;17.6;;;;;;;13.88;94.53027;956.1149;;;;
2019/10/24 11:44:54;;;;;;;19.2;17.4;;;;;;;14.14;93.36621;956.1237;;;;
2019/10/24 11:47:19;;;;;;;18.3;16.6;;;;;;;14.19;93.0752;956.1195;;;;
2019/10/24 11:49:45;;;;;;;18.3;16.5;;;;;;;14.23;92.23828;956.1006;;;;
2019/10/24 11:52:10;;;;;;;18;16.3;;;;;;;14.19;92.38867;956.091;;;;
2019/10/24 11:54:35;;;;;;;17.1;15.5;;;;;;;14.31;91.55664;956.0753;;;;
2019/10/24 11:57:01;;;;;;;17.7;16;;;;;;;14.3;92.34375;955.9861;;;;
2019/10/24 11:59:26;;;;;;;16.5;15;;;;;;;14.28;91.93555;955.9843;;;;
2019/10/24 12:01:51;;;;;;;15.6;14.1;;;;;;;14.43;91.07227;956.03;;;;
2019/10/24 12:04:17;;;;;;;16.2;14.5;;;;;;;14.53;90.62598;956.0834;;;;
2019/10/24 12:06:42;;;;;;;16.3;14.6;;;;;;;14.61;89.94727;956.0291;;;;
2019/10/24 12:09:07;;;;;;;15.1;13.6;;;;;;;14.76;89.2002;956.2256;;;;
2019/10/24 12:11:32;;;;;;;16.6;14.4;;;;;;;14.76;89.57227;956.3109;;;;
2019/10/24 12:13:57;;;;;;;15.5;13.9;;;;;;;14.81;89.36035;956.2403;;;;
2019/10/24 12:16:22;;;;;;;15.6;14;;;;;;;14.9;89.08984;956.2244;;;;
2019/10/24 12:18:47;;;;;;;16;14.5;;;;;;;14.88;89.26074;956.185;;;;
2019/10/24 12:21:13;;;;;;;15.5;13.9;;;;;;;14.9;89.06543;956.2225;;;;
2019/10/24 12:23:38;;;;;;;15.6;14.1;;;;;;;14.96;88.6709;956.1184;;;;
2019/10/24 12:26:03;;;;;;;16.6;14.6;;;;;;;15.1;87.50195;956.0848;;;;
2019/10/24 12:28:28;;;;;;;15.5;13.9;;;;;;;15.09;87.5;956.0717;;;;
2019/10/24 12:30:53;;;;;;;17.1;15.3;;;;;;;15;87.93555;956.1222;;;;
2019/10/24 12:33:19;;;;;;;17.3;15.6;;;;;;;14.93;88.60938;956.1266;;;;
2019/10/24 12:35:44;;;;;;;16.3;14.4;;;;;;;14.95;89.47168;956.0673;;;;
2019/10/24 12:38:09;;;;;;;16.2;14.6;;;;;;;15;89.27344;955.9613;;;;
2019/10/24 12:40:34;;;;;;;16.7;15;;;;;;;14.99;89.58496;955.9705;;;;
2019/10/24 12:43:00;;;;;;;17.6;15.7;;;;;;;14.88;90.77246;956.0119;;;;
2019/10/24 12:45:25;;;;;;;16.6;14.9;;;;;;;14.82;89.49219;956.0966;;;;
2019/10/24 12:47:50;;;;;;;17.4;14.9;;;;;;;14.88;90.03809;956.1235;;;;
2019/10/24 12:50:18;;;;;;;17.7;15.2;;;;;;;14.93;89.16504;956.1545;;;;
2019/10/24 12:52:40;;;;;;;19.6;16.1;;;;;;;14.91;89.91699;956.093;;;;
2019/10/24 12:55:06;;;;;;;19.3;16;;;;;;;14.73;91.15723;956.0969;;;;
2019/10/24 12:57:31;;;;;;;17;15.2;;;;;;;14.74;91.84668;956.1682;;;;
2019/10/24 12:59:56;;;;;;;18.7;16.8;;;;;;;14.81;90.9873;956.1411;;;;
2019/10/24 13:02:22;;;;;;;19.3;17.2;;;;;;;14.66;92.07129;956.2265;;;;
2019/10/24 13:04:47;;;;;;;19.4;17.3;;;;;;;14.63;92.26367;956.2473;;;;
2019/10/24 13:07:12;;;;;;;18.5;16.7;;;;;;;14.72;92.21289;956.1946;;;;
2019/10/24 13:09:38;;;;;;;18.6;16.6;;;;;;;14.77;92.11914;956.2181;;;;
2019/10/24 13:12:03;;;;;;;18.2;16.3;;;;;;;14.71;92.47754;956.2207;;;;
2019/10/24 13:14:35;;;;;;;17.6;15.8;;;;;;;14.88;91.88574;956.2827;;;;
2019/10/24 13:17:00;;;;;;;18.9;16.7;;;;;;;14.81;92.22168;956.3133;;;;
2019/10/24 13:19:25;;;;;;;19;17;;;;;;;14.92;92.01172;956.1651;;;;
2019/10/24 13:21:51;;;;;;;17.5;15.8;;;;;;;14.96;91.98438;956.0569;;;;
2019/10/24 13:24:16;;;;;;;18;16.2;;;;;;;14.87;92.67285;956.0044;;;;
2019/10/24 13:26:41;;;;;;;18;16.1;;;;;;;15.05;91.61914;956.1147;;;;
2019/10/24 13:29:06;;;;;;;17.1;15.6;;;;;;;15.16;91.23535;956.1691;;;;
2019/10/24 13:31:31;;;;;;;18.4;16.5;;;;;;;15.17;91.47168;956.0937;;;;
2019/10/24 13:33:56;;;;;;;18;16.1;;;;;;;15.17;91.7041;956.1881;;;;
2019/10/24 13:36:21;;;;;;;19.4;16.8;;;;;;;15.31;91.16211;956.1454;;;;
2019/10/24 13:38:46;;;;;;;17.4;15.6;;;;;;;15.31;91.38281;956.2094;;;;
2019/10/24 13:41:12;;;;;;;17.9;16.1;;;;;;;15.17;92.44824;956.2915;;;;
2019/10/24 13:43:36;;;;;;;17.9;16.1;;;;;;;15.14;92.62891;956.3483;;;;
2019/10/24 13:46:02;;;;;;;18.7;16.7;;;;;;;15.17;92.73926;956.3046;;;;
2019/10/24 13:48:27;;;;;;;18;16.2;;;;;;;15.17;92.75098;956.2751;;;;
2019/10/24 13:50:51;;;;;;;18;16.2;;;;;;;15.16;93.36523;956.2544;;;;
2019/10/24 13:53:17;;;;;;;18.4;16.4;;;;;;;15.3;92.06738;956.2177;;;;
2019/10/24 13:55:42;;;;;;;18.6;16.6;;;;;;;15.44;91.54883;956.1819;;;;
2019/10/24 13:58:07;;;;;;;19.3;16.8;;;;;;;15.23;92.70605;956.0704;;;;
2019/10/24 14:00:32;;;;;;;18.8;16.9;;;;;;;15.25;91.90723;956.0045;;;;
2019/10/24 14:02:58;;;;;;;18.3;16.5;;;;;;;15.28;91.67969;956.0042;;;;
2019/10/24 14:05:23;;;;;;;17.7;15.8;;;;;;;15.35;90.51953;956.1002;;;;
2019/10/24 14:07:48;;;;;;;18.5;16.2;;;;;;;15.22;90.88965;956.2517;;;;
2019/10/24 14:10:13;;;;;;;18;16.1;;;;;;;15.24;90.97266;956.324;;;;
2019/10/24 14:12:38;;;;;;;17.1;15.4;;;;;;;15.31;91.16211;956.3466;;;;
2019/10/24 14:15:03;;;;;;;17.5;15.7;;;;;;;15.37;90.05762;956.3824;;;;
2019/10/24 14:17:28;;;;;;;16.9;15.2;;;;;;;15.39;89.99219;956.3923;;;;
2019/10/24 14:19:53;;;;;;;17.5;15.7;;;;;;;15.44;89.61719;956.4348;;;;
2019/10/24 14:22:19;;;;;;;17.7;15.9;;;;;;;15.46;89.19238;956.4542;;;;
2019/10/24 14:24:44;;;;;;;17.3;15.4;;;;;;;15.42;89.10156;956.4242;;;;
2019/10/24 14:27:10;;;;;;;17.3;15.6;;;;;;;15.29;89.86719;956.4872;;;;
2019/10/24 14:29:34;;;;;;;17.5;15.6;;;;;;;15.27;89.98145;956.4986;;;;
2019/10/24 14:32:00;;;;;;;19.3;15.9;;;;;;;15.24;90.43945;956.5184;;;;
2019/10/24 14:34:26;;;;;;;17.2;15.4;;;;;;;15.42;89.82324;956.4891;;;;